createdAt,value
2019-05-23T00:07:14.641Z,0.00
2019-05-23T00:17:14.609Z,0.00
2019-05-23T00:27:14.543Z,0.00
2019-05-23T00:37:14.505Z,0.00
2019-05-23T00:47:14.603Z,0.00
2019-05-23T00:57:14.751Z,0.00
2019-05-23T01:07:15.236Z,0.00
2019-05-23T01:17:14.502Z,0.00
2019-05-23T01:27:14.564Z,0.00
2019-05-23T01:37:14.749Z,0.00
2019-05-23T01:47:14.500Z,0.00
2019-05-23T01:57:14.530Z,0.00
2019-05-23T02:07:14.491Z,0.00
2019-05-23T02:17:15.387Z,0.02
2019-05-23T02:27:14.530Z,0.00
2019-05-23T02:37:14.496Z,0.00
2019-05-23T02:47:14.571Z,0.00
2019-05-23T02:57:14.504Z,0.00
2019-05-23T03:07:14.578Z,0.00
2019-05-23T03:17:14.558Z,0.00
2019-05-23T03:27:14.519Z,0.01
2019-05-23T03:37:14.591Z,0.00
2019-05-23T03:47:14.559Z,0.00
2019-05-23T03:57:14.577Z,0.00
2019-05-23T04:07:14.624Z,0.00
2019-05-23T04:17:14.686Z,0.00
2019-05-23T04:27:14.736Z,0.00
2019-05-23T04:37:15.596Z,0.00
2019-05-23T04:47:14.557Z,0.00
2019-05-23T04:57:14.516Z,0.00
2019-05-23T05:07:14.482Z,0.00
2019-05-23T05:17:14.571Z,0.00
2019-05-23T05:27:14.532Z,0.00
2019-05-23T05:37:14.523Z,0.00
2019-05-23T05:47:14.553Z,0.00
2019-05-23T05:57:14.538Z,0.09
2019-05-23T06:07:14.801Z,0.22
2019-05-23T06:17:18.187Z,0.32
2019-05-23T06:27:14.662Z,0.43
2019-05-23T06:37:14.613Z,0.65
2019-05-23T06:47:14.709Z,0.92
2019-05-23T06:57:14.554Z,1.16
2019-05-23T07:07:14.534Z,2.34
2019-05-23T07:17:14.625Z,3.41
2019-05-23T07:27:15.314Z,3.17
2019-05-23T07:37:15.349Z,2.92
2019-05-23T07:47:14.646Z,2.63
2019-05-23T07:57:14.578Z,3.55
2019-05-23T08:07:14.817Z,3.16
2019-05-23T08:17:14.599Z,2.50
2019-05-23T08:27:14.783Z,2.54
2019-05-23T08:37:14.656Z,2.76
2019-05-23T08:47:14.625Z,3.04
2019-05-23T08:57:14.577Z,2.50
2019-05-23T09:07:14.807Z,3.23
2019-05-23T09:17:14.658Z,2.60
2019-05-23T09:27:14.547Z,3.39
2019-05-23T09:37:18.463Z,3.23
2019-05-23T09:57:20.962Z,4.14
2019-05-23T10:07:21.089Z,3.41
2019-05-23T10:17:21.006Z,2.10
2019-05-23T10:27:20.953Z,2.69
2019-05-23T10:37:21.041Z,3.41
2019-05-23T10:47:21.108Z,2.81
2019-05-23T10:57:20.998Z,1.61
2019-05-23T11:07:21.242Z,2.03
2019-05-23T11:17:21.006Z,1.62
2019-05-23T11:27:21.082Z,2.51
2019-05-23T11:37:21.688Z,2.79
2019-05-23T11:47:22.342Z,2.01
2019-05-23T11:57:21.021Z,2.39
2019-05-23T12:07:21.209Z,2.44
2019-05-23T12:17:21.051Z,2.40
2019-05-23T12:27:21.183Z,2.69
2019-05-23T12:37:21.155Z,2.85
2019-05-23T12:47:21.765Z,2.70
2019-05-23T12:57:24.194Z,4.26
2019-05-23T13:07:35.569Z,2.75
2019-05-23T13:17:21.872Z,2.48
2019-05-23T13:27:22.047Z,2.01
2019-05-23T13:37:20.949Z,1.83
2019-05-23T13:47:21.091Z,2.64
2019-05-23T13:57:21.940Z,2.36
2019-05-23T14:07:21.182Z,3.18
2019-05-23T14:17:21.158Z,2.79
2019-05-23T14:27:21.044Z,2.41
2019-05-23T14:37:21.121Z,1.14
2019-05-23T14:47:22.926Z,1.87
2019-05-23T14:57:21.107Z,1.43
2019-05-23T15:07:21.090Z,1.20
2019-05-23T15:17:21.983Z,0.89
2019-05-23T15:27:21.151Z,0.56
2019-05-23T15:37:21.018Z,0.96
2019-05-23T15:47:21.078Z,1.25
2019-05-23T15:57:25.238Z,0.92
2019-05-23T16:07:21.014Z,0.88
2019-05-23T16:17:20.978Z,1.15
2019-05-23T16:27:21.061Z,1.15
2019-05-23T16:37:22.099Z,0.71
2019-05-23T16:47:21.251Z,0.83
2019-05-23T16:57:21.027Z,0.72
2019-05-23T17:07:21.193Z,0.97
2019-05-23T17:17:39.232Z,0.83
2019-05-23T17:27:21.164Z,0.83
2019-05-23T17:37:21.220Z,0.54
2019-05-23T17:47:21.156Z,0.50
2019-05-23T17:57:22.701Z,0.63
2019-05-23T18:07:20.997Z,0.36
2019-05-23T18:17:21.063Z,0.25
2019-05-23T18:27:21.007Z,0.11
2019-05-23T18:37:21.854Z,0.05
2019-05-23T18:47:21.806Z,0.03
2019-05-23T18:57:21.051Z,0.05
2019-05-23T19:07:21.028Z,0.03
2019-05-23T19:17:21.094Z,0.00
2019-05-23T19:27:21.043Z,0.00
2019-05-23T19:37:21.138Z,0.01
2019-05-23T19:47:21.761Z,0.00
2019-05-23T19:57:21.101Z,0.04
2019-05-23T20:07:21.092Z,0.00
2019-05-23T20:17:21.084Z,0.00
2019-05-23T20:27:21.046Z,0.00
2019-05-23T20:37:21.059Z,0.00
2019-05-23T20:47:21.152Z,0.00
2019-05-23T20:57:21.086Z,0.00
2019-05-23T21:07:21.148Z,0.02
2019-05-23T21:17:21.127Z,0.00
2019-05-23T21:27:21.082Z,0.02
2019-05-23T21:37:21.079Z,0.00
2019-05-23T21:47:23.036Z,0.09
2019-05-23T21:57:21.106Z,0.50
2019-05-23T22:07:21.046Z,0.09
2019-05-23T22:17:21.140Z,0.15
2019-05-23T22:27:21.102Z,0.03
2019-05-23T22:37:21.067Z,0.00
2019-05-23T22:47:21.132Z,0.00
2019-05-23T22:57:25.108Z,0.09
2019-05-23T23:07:21.030Z,0.00
2019-05-23T23:17:21.143Z,0.00
2019-05-23T23:27:21.094Z,0.01
2019-05-23T23:37:21.206Z,0.00
2019-05-23T23:47:21.058Z,0.00
2019-05-23T23:57:21.110Z,0.00
